createdAt,value
2018-02-12T00:00:17.683Z,68.96
2018-02-12T00:01:17.975Z,69.05
2018-02-12T00:02:17.707Z,68.96
2018-02-12T00:03:18.012Z,68.86
2018-02-12T00:04:18.012Z,68.39
2018-02-12T00:05:18.021Z,68.19
2018-02-12T00:06:18.034Z,68.39
2018-02-12T00:07:18.046Z,68.48
2018-02-12T00:08:17.777Z,68.48
2018-02-12T00:09:18.069Z,68.29
2018-02-12T00:10:17.800Z,68.39
2018-02-12T00:11:18.093Z,68.1
2018-02-12T00:12:18.107Z,68.48
2018-02-12T00:13:18.116Z,68.39
2018-02-12T00:14:18.131Z,68.39
2018-02-12T00:15:17.859Z,68.48
2018-02-12T00:16:18.154Z,68.01
2018-02-12T00:17:18.165Z,68.19
2018-02-12T00:18:17.896Z,68.19
2018-02-12T00:19:18.190Z,67.91
2018-02-12T00:20:18.242Z,67.82
2018-02-12T00:21:18.210Z,68.16
2018-02-12T00:22:17.944Z,67.69
2018-02-12T00:23:18.233Z,67.88
2018-02-12T00:24:18.247Z,68.1
2018-02-12T00:25:17.976Z,67.88
2018-02-12T00:26:18.276Z,68.16
2018-02-12T00:27:18.001Z,68.26
2018-02-12T00:28:18.012Z,68.44
2018-02-12T00:29:18.307Z,68.16
2018-02-12T00:30:18.317Z,67.88
2018-02-12T00:31:18.350Z,68.54
2018-02-12T00:32:18.058Z,68.35
2018-02-12T00:33:18.070Z,68.35
2018-02-12T00:34:18.082Z,68.64
2018-02-12T00:35:18.373Z,68.35
2018-02-12T00:36:18.104Z,68.44
2018-02-12T00:37:18.398Z,68.16
2018-02-12T00:38:18.128Z,67.97
2018-02-12T00:39:18.420Z,68.16
2018-02-12T00:40:18.151Z,67.88
2018-02-12T00:41:18.443Z,68.44
2018-02-12T00:42:18.462Z,68.54
2018-02-12T00:43:18.188Z,68.16
2018-02-12T00:44:18.486Z,67.97
2018-02-12T00:45:18.490Z,68.26
2018-02-12T00:46:18.221Z,68.73
2018-02-12T00:47:18.231Z,68.44
2018-02-12T00:48:18.244Z,68.64
2018-02-12T00:49:18.544Z,68.16
2018-02-12T00:50:18.546Z,68.35
2018-02-12T00:51:18.559Z,68.16
2018-02-12T00:52:18.572Z,68.16
2018-02-12T00:53:18.301Z,68.35
2018-02-12T00:54:18.316Z,68.16
2018-02-12T00:55:18.605Z,67.88
2018-02-12T00:56:18.336Z,67.97
2018-02-12T00:57:18.678Z,67.97
2018-02-12T00:58:18.641Z,67.97
2018-02-12T00:59:18.651Z,68.16
2018-02-12T01:00:18.384Z,67.79
2018-02-12T01:01:18.675Z,67.79
2018-02-12T01:02:18.457Z,67.88
2018-02-12T01:03:18.417Z,68.44
2018-02-12T01:04:18.710Z,68.35
2018-02-12T01:05:18.442Z,68.16
2018-02-12T01:06:18.452Z,68.16
2018-02-12T01:07:18.513Z,68.26
2018-02-12T01:08:18.474Z,68.44
2018-02-12T01:09:18.485Z,68.54
2018-02-12T01:10:18.499Z,68.35
2018-02-12T01:11:18.542Z,68.54
2018-02-12T01:12:18.850Z,68.26
2018-02-12T01:13:18.813Z,68.35
2018-02-12T01:14:18.824Z,68.35
2018-02-12T01:15:18.834Z,68.35
2018-02-12T01:16:18.845Z,68.44
2018-02-12T01:17:18.932Z,68.35
2018-02-12T01:18:18.869Z,68.44
2018-02-12T01:19:18.600Z,68.44
2018-02-12T01:20:18.610Z,68.35
2018-02-12T01:21:18.623Z,68.35
2018-02-12T01:22:18.685Z,68.35
2018-02-12T01:23:18.926Z,68.26
2018-02-12T01:24:18.935Z,68.16
2018-02-12T01:25:18.955Z,68.35
2018-02-12T01:26:18.960Z,68.83
2018-02-12T01:27:18.739Z,68.44
2018-02-12T01:28:18.703Z,68.35
2018-02-12T01:29:18.992Z,68.64
2018-02-12T01:30:19.006Z,67.88
2018-02-12T01:31:19.014Z,68.16
2018-02-12T01:32:18.795Z,68.16
2018-02-12T01:33:19.037Z,67.97
2018-02-12T01:34:19.047Z,67.79
2018-02-12T01:35:18.782Z,67.88
2018-02-12T01:36:19.073Z,68.07
2018-02-12T01:37:19.132Z,68.44
2018-02-12T01:38:18.814Z,68.54
2018-02-12T01:39:19.109Z,68.44
2018-02-12T01:40:18.838Z,68.35
2018-02-12T01:41:18.850Z,68.35
2018-02-12T01:42:19.187Z,69.11
2018-02-12T01:43:18.869Z,68.16
2018-02-12T01:44:18.881Z,68.73
2018-02-12T01:45:19.179Z,68.73
2018-02-12T01:46:19.184Z,68.54
2018-02-12T01:47:18.915Z,68.26
2018-02-12T01:48:18.928Z,68.35
2018-02-12T01:49:18.937Z,68.26
2018-02-12T01:50:18.948Z,68.16
2018-02-12T01:51:18.960Z,68.35
2018-02-12T01:52:19.301Z,68.16
2018-02-12T01:53:19.262Z,68.13
2018-02-12T01:54:19.273Z,68.16
2018-02-12T01:55:19.006Z,68.16
2018-02-12T01:56:19.306Z,68.83
2018-02-12T01:57:19.356Z,68.32
2018-02-12T01:58:19.038Z,68.35
2018-02-12T01:59:19.050Z,68.32
2018-02-12T02:00:19.061Z,68.23
2018-02-12T02:01:19.070Z,68.26
2018-02-12T02:02:19.085Z,68.32
2018-02-12T02:03:19.375Z,68.13
2018-02-12T02:04:19.385Z,68.13
2018-02-12T02:05:19.396Z,68.13
2018-02-12T02:06:19.407Z,68.04
2018-02-12T02:07:19.569Z,68.51
2018-02-12T02:08:19.430Z,68.32
2018-02-12T02:09:19.445Z,68.32
2018-02-12T02:10:19.172Z,68.41
2018-02-12T02:11:19.181Z,68.32
2018-02-12T02:12:19.472Z,68.6
2018-02-12T02:13:19.486Z,68.6
2018-02-12T02:14:19.503Z,68.32
2018-02-12T02:15:19.507Z,68.32
2018-02-12T02:16:19.237Z,68.32
2018-02-12T02:17:19.579Z,68.13
2018-02-12T02:18:19.542Z,68.23
2018-02-12T02:19:19.270Z,68.04
2018-02-12T02:20:19.563Z,68.41
2018-02-12T02:21:19.579Z,68.32
2018-02-12T02:22:19.353Z,68.32
2018-02-12T02:23:19.595Z,68.23
2018-02-12T02:24:19.606Z,68.32
2018-02-12T02:25:19.336Z,67.94
2018-02-12T02:26:19.350Z,68.6
2018-02-12T02:27:19.408Z,68.6
2018-02-12T02:28:19.652Z,68.51
2018-02-12T02:29:19.379Z,68.79
2018-02-12T02:30:19.392Z,68.98
2018-02-12T02:31:19.403Z,69.08
2018-02-12T02:32:19.746Z,69.08
2018-02-12T02:33:19.426Z,68.89
2018-02-12T02:34:19.720Z,68.89
2018-02-12T02:35:19.448Z,68.98
2018-02-12T02:36:19.741Z,68.98
2018-02-12T02:37:19.541Z,69.08
2018-02-12T02:38:19.486Z,68.7
2018-02-12T02:39:19.490Z,68.79
2018-02-12T02:40:19.502Z,68.79
2018-02-12T02:41:19.512Z,68.98
2018-02-12T02:42:19.914Z,68.7
2018-02-12T02:43:19.816Z,68.98
2018-02-12T02:44:19.827Z,68.89
2018-02-12T02:45:19.838Z,68.79
2018-02-12T02:46:19.568Z,68.7
2018-02-12T02:47:20.016Z,68.98
2018-02-12T02:48:19.885Z,68.89
2018-02-12T02:49:19.600Z,68.7
2018-02-12T02:50:19.612Z,68.89
2018-02-12T02:51:19.903Z,68.7
2018-02-12T02:52:20.013Z,69.17
2018-02-12T02:53:19.644Z,69.27
2018-02-12T02:54:19.938Z,69.08
2018-02-12T02:55:19.956Z,69.27
2018-02-12T02:56:19.958Z,69.08
2018-02-12T02:57:19.738Z,69.17
2018-02-12T02:58:19.980Z,68.98
2018-02-12T02:59:19.990Z,68.89
2018-02-12T03:00:20.005Z,68.98
2018-02-12T03:01:19.732Z,68.98
2018-02-12T03:02:20.154Z,69.08
2018-02-12T03:03:19.753Z,69.08
2018-02-12T03:04:20.045Z,69.08
2018-02-12T03:05:20.054Z,69.08
2018-02-12T03:06:19.784Z,69.08
2018-02-12T03:07:20.127Z,68.98
2018-02-12T03:08:20.086Z,68.98
2018-02-12T03:09:19.818Z,68.79
2018-02-12T03:10:19.828Z,69.08
2018-02-12T03:11:19.839Z,69.08
2018-02-12T03:12:19.900Z,69.36
2018-02-12T03:13:20.141Z,69.36
2018-02-12T03:14:20.151Z,68.98
2018-02-12T03:15:20.162Z,69.27
2018-02-12T03:16:19.893Z,69.36
2018-02-12T03:17:19.957Z,69.17
2018-02-12T03:18:20.195Z,69.27
2018-02-12T03:19:19.925Z,68.98
2018-02-12T03:20:20.216Z,69.36
2018-02-12T03:21:20.231Z,69.36
2018-02-12T03:22:19.960Z,69.36
2018-02-12T03:23:20.250Z,69.17
2018-02-12T03:24:20.263Z,69.27
2018-02-12T03:25:19.992Z,69.36
2018-02-12T03:26:20.282Z,69.36
2018-02-12T03:27:20.294Z,69.55
2018-02-12T03:28:20.305Z,69.17
2018-02-12T03:29:20.042Z,69.36
2018-02-12T03:30:20.046Z,69.74
2018-02-12T03:31:20.056Z,70.21
2018-02-12T03:32:20.068Z,70.12
2018-02-12T03:33:20.076Z,70.03
2018-02-12T03:34:20.088Z,70.03
2018-02-12T03:35:20.097Z,70.12
2018-02-12T03:36:20.109Z,70.12
2018-02-12T03:37:20.120Z,70.12
2018-02-12T03:38:20.413Z,70.21
2018-02-12T03:39:20.424Z,69.74
2018-02-12T03:40:20.152Z,70.03
2018-02-12T03:41:20.444Z,69.84
2018-02-12T03:42:20.173Z,70.03
2018-02-12T03:43:20.420Z,69.84
2018-02-12T03:44:20.195Z,69.84
2018-02-12T03:45:20.488Z,70.59
2018-02-12T03:46:20.216Z,69.93
2018-02-12T03:47:20.228Z,70.31
2018-02-12T03:48:20.519Z,70.12
2018-02-12T03:49:20.529Z,70.12
2018-02-12T03:50:20.542Z,70.12
2018-02-12T03:51:20.553Z,70.12
2018-02-12T03:52:20.572Z,70.21
2018-02-12T03:53:20.291Z,70.21
2018-02-12T03:54:20.302Z,70.12
2018-02-12T03:55:20.314Z,70.12
2018-02-12T03:56:20.612Z,70.21
2018-02-12T03:57:20.666Z,70.12
2018-02-12T03:58:20.627Z,70.12
2018-02-12T03:59:20.657Z,70.12
2018-02-12T04:00:20.646Z,70.12
2018-02-12T04:01:20.361Z,70.5
2018-02-12T04:02:20.669Z,70.03
2018-02-12T04:03:20.401Z,70.12
2018-02-12T04:04:20.409Z,69.93
2018-02-12T04:05:20.420Z,70.21
2018-02-12T04:06:20.432Z,70.4
2018-02-12T04:07:20.443Z,70.12
2018-02-12T04:08:20.454Z,70.5
2018-02-12T04:09:20.464Z,70.03
2018-02-12T04:10:20.478Z,70.03
2018-02-12T04:11:20.485Z,70.12
2018-02-12T04:12:20.497Z,70.12
2018-02-12T04:13:20.558Z,70.31
2018-02-12T04:14:20.807Z,70.12
2018-02-12T04:15:20.529Z,70.12
2018-02-12T04:16:20.540Z,70.21
2018-02-12T04:17:20.551Z,70.21
2018-02-12T04:18:20.892Z,70.4
2018-02-12T04:19:20.573Z,70.21
2018-02-12T04:20:20.864Z,70.21
2018-02-12T04:21:20.596Z,70.21
2018-02-12T04:22:20.886Z,70.21
2018-02-12T04:23:20.676Z,70.21
2018-02-12T04:24:20.628Z,70.21
2018-02-12T04:25:20.918Z,70.21
2018-02-12T04:26:20.929Z,70.21
2018-02-12T04:27:20.659Z,70.12
2018-02-12T04:28:20.670Z,70.21
2018-02-12T04:29:20.961Z,70.21
2018-02-12T04:30:20.693Z,70.03
2018-02-12T04:31:21.065Z,70.21
2018-02-12T04:32:21.000Z,70.12
2018-02-12T04:33:21.005Z,70.31
2018-02-12T04:34:20.734Z,70.03
2018-02-12T04:35:21.024Z,70.31
2018-02-12T04:36:20.757Z,70.03
2018-02-12T04:37:20.766Z,70.12
2018-02-12T04:38:21.057Z,70.31
2018-02-12T04:39:21.070Z,70.4
2018-02-12T04:40:21.078Z,69.93
2018-02-12T04:41:20.811Z,69.93
2018-02-12T04:42:21.101Z,70.21
2018-02-12T04:43:20.833Z,69.84
2018-02-12T04:44:21.128Z,70.03
2018-02-12T04:45:20.853Z,70.03
2018-02-12T04:46:21.145Z,69.65
2018-02-12T04:47:20.875Z,69.93
2018-02-12T04:48:20.886Z,69.93
2018-02-12T04:49:21.176Z,70.12
2018-02-12T04:50:20.908Z,70.21
2018-02-12T04:51:21.198Z,70.03
2018-02-12T04:52:21.209Z,70.21
2018-02-12T04:53:20.941Z,69.74
2018-02-12T04:54:21.236Z,69.36
2018-02-12T04:55:21.243Z,69.17
2018-02-12T04:56:21.253Z,69.36
2018-02-12T04:57:20.982Z,69.36
2018-02-12T04:58:20.994Z,69.08
2018-02-12T04:59:21.287Z,69.55
2018-02-12T05:00:21.297Z,69.27
2018-02-12T05:01:21.307Z,69.36
2018-02-12T05:02:21.317Z,68.98
2018-02-12T05:03:21.047Z,69.08
2018-02-12T05:04:21.347Z,68.79
2018-02-12T05:05:21.072Z,69.17
2018-02-12T05:06:21.363Z,68.79
2018-02-12T05:07:21.377Z,69.08
2018-02-12T05:08:21.101Z,69.36
2018-02-12T05:09:21.399Z,68.6
2018-02-12T05:10:21.403Z,68.89
2018-02-12T05:11:21.414Z,68.7
2018-02-12T05:12:21.144Z,68.79
2018-02-12T05:13:21.155Z,68.79
2018-02-12T05:14:21.167Z,68.79
2018-02-12T05:15:21.178Z,69.65
2018-02-12T05:16:21.187Z,69.17
2018-02-12T05:17:21.197Z,69.36
2018-02-12T05:18:21.210Z,69.08
2018-02-12T05:19:21.501Z,69.46
2018-02-12T05:20:21.516Z,68.89
2018-02-12T05:21:21.241Z,68.89
2018-02-12T05:22:21.533Z,68.79
2018-02-12T05:23:21.544Z,69.17
2018-02-12T05:24:21.273Z,69.08
2018-02-12T05:25:21.565Z,69.27
2018-02-12T05:26:21.294Z,68.7
2018-02-12T05:27:21.305Z,68.79
2018-02-12T05:28:21.316Z,69.27
2018-02-12T05:29:21.609Z,69.08
2018-02-12T05:30:21.620Z,68.98
2018-02-12T05:31:21.348Z,69.08
2018-02-12T05:32:21.645Z,69.36
2018-02-12T05:33:21.370Z,69.08
2018-02-12T05:34:21.381Z,69.27
2018-02-12T05:35:21.672Z,69.17
2018-02-12T05:36:21.400Z,69.08
2018-02-12T05:37:21.412Z,69.46
2018-02-12T05:38:21.707Z,69.36
2018-02-12T05:39:21.434Z,69.55
2018-02-12T05:40:21.724Z,69.74
2018-02-12T05:41:21.455Z,69.74
2018-02-12T05:42:21.748Z,69.65
2018-02-12T05:43:21.760Z,69.74
2018-02-12T05:44:21.772Z,70.12
2018-02-12T05:45:21.782Z,69.93
2018-02-12T05:46:21.792Z,70.03
2018-02-12T05:47:21.521Z,69.74
2018-02-12T05:48:21.540Z,69.93
2018-02-12T05:49:21.828Z,69.74
2018-02-12T05:50:21.836Z,69.93
2018-02-12T05:51:21.843Z,69.55
2018-02-12T05:52:21.856Z,69.46
2018-02-12T05:53:21.864Z,69.65
2018-02-12T05:54:21.876Z,69.46
2018-02-12T05:55:21.886Z,70.03
2018-02-12T05:56:21.616Z,69.93
2018-02-12T05:57:21.907Z,70.12
2018-02-12T05:58:21.918Z,69.74
2018-02-12T05:59:21.929Z,69.74
2018-02-12T06:00:21.658Z,70.12
2018-02-12T06:01:21.950Z,70.12
2018-02-12T06:02:21.963Z,69.93
2018-02-12T06:03:21.691Z,69.84
2018-02-12T06:04:21.702Z,69.93
2018-02-12T06:05:21.996Z,69.65
2018-02-12T06:06:22.010Z,69.84
2018-02-12T06:07:22.015Z,70.03
2018-02-12T06:08:22.026Z,69.93
2018-02-12T06:09:22.037Z,69.74
2018-02-12T06:10:22.047Z,69.65
2018-02-12T06:11:21.778Z,69.84
2018-02-12T06:12:21.786Z,69.84
2018-02-12T06:13:22.084Z,69.84
2018-02-12T06:14:22.091Z,69.93
2018-02-12T06:15:21.818Z,70.12
2018-02-12T06:16:22.114Z,69.74
2018-02-12T06:17:22.165Z,69.93
2018-02-12T06:18:22.132Z,69.93
2018-02-12T06:19:22.141Z,69.74
2018-02-12T06:20:22.150Z,69.84
2018-02-12T06:21:22.163Z,69.84
2018-02-12T06:22:22.175Z,69.93
2018-02-12T06:23:21.902Z,69.93
2018-02-12T06:24:22.195Z,69.93
2018-02-12T06:25:21.929Z,69.93
2018-02-12T06:26:22.215Z,69.74
2018-02-12T06:27:21.949Z,70.21
2018-02-12T06:28:21.957Z,69.93
2018-02-12T06:29:22.301Z,69.84
2018-02-12T06:30:21.977Z,69.93
2018-02-12T06:31:22.269Z,69.93
2018-02-12T06:32:21.998Z,69.93
2018-02-12T06:33:22.290Z,70.12
2018-02-12T06:34:22.353Z,69.84
2018-02-12T06:35:22.030Z,69.65
2018-02-12T06:36:22.327Z,69.84
2018-02-12T06:37:22.053Z,70.12
2018-02-12T06:38:22.344Z,70.12
2018-02-12T06:39:22.123Z,70.31
2018-02-12T06:40:22.366Z,70.03
2018-02-12T06:41:22.095Z,69.84
2018-02-12T06:42:22.386Z,70.12
2018-02-12T06:43:22.399Z,70.21
2018-02-12T06:44:22.175Z,70.12
2018-02-12T06:45:22.418Z,70.31
2018-02-12T06:46:22.148Z,70.4
2018-02-12T06:47:22.158Z,70.03
2018-02-12T06:48:22.453Z,70.31
2018-02-12T06:49:22.177Z,70.31
2018-02-12T06:50:22.189Z,70.31
2018-02-12T06:51:22.484Z,70.5
2018-02-12T06:52:22.209Z,70.59
2018-02-12T06:53:22.220Z,70.69
2018-02-12T06:54:22.562Z,70.4
2018-02-12T06:55:22.523Z,70.21
2018-02-12T06:56:22.537Z,70.88
2018-02-12T06:57:22.265Z,70.59
2018-02-12T06:58:22.603Z,70.78
2018-02-12T06:59:22.619Z,70.5
2018-02-12T07:00:22.294Z,70.59
2018-02-12T07:01:22.586Z,70.78
2018-02-12T07:02:22.315Z,70.4
2018-02-12T07:03:22.608Z,70.69
2018-02-12T07:04:22.766Z,70.4
2018-02-12T07:05:22.348Z,70.31
2018-02-12T07:06:22.358Z,70.59
2018-02-12T07:07:22.368Z,70.5
2018-02-12T07:08:22.660Z,70.59
2018-02-12T07:09:22.392Z,70.59
2018-02-12T07:10:22.400Z,70.98
2018-02-12T07:11:22.693Z,71.17
2018-02-12T07:12:22.702Z,70.88
2018-02-12T07:13:22.432Z,70.69
2018-02-12T07:14:22.494Z,70.78
2018-02-12T07:15:22.453Z,70.59
2018-02-12T07:16:22.745Z,70.69
2018-02-12T07:17:22.757Z,70.88
2018-02-12T07:18:22.488Z,70.78
2018-02-12T07:19:22.496Z,70.88
2018-02-12T07:20:22.789Z,70.88
2018-02-12T07:21:22.797Z,70.88
2018-02-12T07:22:22.808Z,70.98
2018-02-12T07:23:22.540Z,71.07
2018-02-12T07:24:22.600Z,70.98
2018-02-12T07:25:22.842Z,70.98
2018-02-12T07:26:22.634Z,71.17
2018-02-12T07:27:22.865Z,70.78
2018-02-12T07:28:22.590Z,70.69
2018-02-12T07:29:22.602Z,70.78
2018-02-12T07:30:22.896Z,70.59
2018-02-12T07:31:24.470Z,70.78
2018-02-12T07:32:22.917Z,70.59
2018-02-12T07:33:22.645Z,70.88
2018-02-12T07:34:23.159Z,70.78
2018-02-12T07:35:22.949Z,70.78
2018-02-12T07:36:22.957Z,70.88
2018-02-12T07:37:22.731Z,70.88
2018-02-12T07:38:22.704Z,70.88
2018-02-12T07:39:23.041Z,70.98
2018-02-12T07:40:22.718Z,70.98
2018-02-12T07:41:22.729Z,71.07
2018-02-12T07:42:23.029Z,70.78
2018-02-12T07:43:22.750Z,70.98
2018-02-12T07:44:22.762Z,70.98
2018-02-12T07:45:22.771Z,71.07
2018-02-12T07:46:23.064Z,70.88
2018-02-12T07:47:23.083Z,71.07
2018-02-12T07:48:23.091Z,70.5
2018-02-12T07:49:22.814Z,70.31
2018-02-12T07:50:23.107Z,70.21
2018-02-12T07:51:23.116Z,70.69
2018-02-12T07:52:23.129Z,70.69
2018-02-12T07:53:22.857Z,70.88
2018-02-12T07:54:23.151Z,70.69
2018-02-12T07:55:23.164Z,70.78
2018-02-12T07:56:22.889Z,70.5
2018-02-12T07:57:22.900Z,70.4
2018-02-12T07:58:23.192Z,70.5
2018-02-12T07:59:22.921Z,70.5
2018-02-12T08:00:23.213Z,70.03
2018-02-12T08:01:23.230Z,70.4
2018-02-12T08:02:23.236Z,70.31
2018-02-12T08:03:23.245Z,70.4
2018-02-12T08:04:23.306Z,70.31
2018-02-12T08:05:23.265Z,70.12
2018-02-12T08:06:22.996Z,70.21
2018-02-12T08:07:23.288Z,70.12
2018-02-12T08:08:23.301Z,70.03
2018-02-12T08:09:23.028Z,70.12
2018-02-12T08:10:23.321Z,70.31
2018-02-12T08:11:23.333Z,70.12
2018-02-12T08:12:23.342Z,70.03
2018-02-12T08:13:23.071Z,69.84
2018-02-12T08:14:23.415Z,69.74
2018-02-12T08:15:23.097Z,69.93
2018-02-12T08:16:23.385Z,69.93
2018-02-12T08:17:23.399Z,70.03
2018-02-12T08:18:23.128Z,69.74
2018-02-12T08:19:23.137Z,69.65
2018-02-12T08:20:23.429Z,69.27
2018-02-12T08:21:23.439Z,69.17
2018-02-12T08:22:23.451Z,69.36
2018-02-12T08:23:23.181Z,69.36
2018-02-12T08:24:23.622Z,69.46
2018-02-12T08:25:23.484Z,68.89
2018-02-12T08:26:23.500Z,69.36
2018-02-12T08:27:23.505Z,69.08
2018-02-12T08:28:23.515Z,68.89
2018-02-12T08:29:23.575Z,69.08
2018-02-12T08:30:23.537Z,69.08
2018-02-12T08:31:23.548Z,68.79
2018-02-12T08:32:23.559Z,68.79
2018-02-12T08:33:23.288Z,69.08
2018-02-12T08:34:23.741Z,69.17
2018-02-12T08:35:23.643Z,69.65
2018-02-12T08:36:23.606Z,68.98
2018-02-12T08:37:23.615Z,69.08
2018-02-12T08:38:23.628Z,68.79
2018-02-12T08:39:23.685Z,69.08
2018-02-12T08:40:23.652Z,69.11
2018-02-12T08:41:23.657Z,68.83
2018-02-12T08:42:23.667Z,68.32
2018-02-12T08:43:23.679Z,68.35
2018-02-12T08:44:23.459Z,68.73
2018-02-12T08:45:23.419Z,68.44
2018-02-12T08:46:23.429Z,68.92
2018-02-12T08:47:23.729Z,69.21
2018-02-12T08:48:23.733Z,68.44
2018-02-12T08:49:23.514Z,68.35
2018-02-12T08:50:23.755Z,68.35
2018-02-12T08:51:23.765Z,68.26
2018-02-12T08:52:23.496Z,68.44
2018-02-12T08:53:23.789Z,68.26
2018-02-12T08:54:23.568Z,68.07
2018-02-12T08:55:23.821Z,68.16
2018-02-12T08:56:23.830Z,68.44
2018-02-12T08:57:23.551Z,68.44
2018-02-12T08:58:23.563Z,68.35
2018-02-12T08:59:23.624Z,69.21
2018-02-12T09:00:23.864Z,69.02
2018-02-12T09:01:23.877Z,69.02
2018-02-12T09:02:23.888Z,68.35
2018-02-12T09:03:23.898Z,68.26
2018-02-12T09:04:23.919Z,68.16
2018-02-12T09:05:23.642Z,68.44
2018-02-12T09:06:23.933Z,68.44
2018-02-12T09:07:23.943Z,68.54
2018-02-12T09:08:23.956Z,67.97
2018-02-12T09:09:24.015Z,68.54
2018-02-12T09:10:23.980Z,68.54
2018-02-12T09:11:23.706Z,68.35
2018-02-12T09:12:23.716Z,68.44
2018-02-12T09:13:24.009Z,68.16
2018-02-12T09:14:23.739Z,68.26
2018-02-12T09:15:24.029Z,68.35
2018-02-12T09:16:23.761Z,68.44
2018-02-12T09:17:24.054Z,68.35
2018-02-12T09:18:24.077Z,68.26
2018-02-12T09:19:24.079Z,68.44
2018-02-12T09:20:24.085Z,68.35
2018-02-12T09:21:24.097Z,68.83
2018-02-12T09:22:24.111Z,68.16
2018-02-12T09:23:24.127Z,68.26
2018-02-12T09:24:24.129Z,68.16
2018-02-12T09:25:24.141Z,67.97
2018-02-12T09:26:23.871Z,68.54
2018-02-12T09:27:23.883Z,68.16
2018-02-12T09:28:24.177Z,68.35
2018-02-12T09:29:24.187Z,68.35
2018-02-12T09:30:23.916Z,68.44
2018-02-12T09:31:24.209Z,68.35
2018-02-12T09:32:23.940Z,68.44
2018-02-12T09:33:24.234Z,68.44
2018-02-12T09:34:24.242Z,68.26
2018-02-12T09:35:23.971Z,67.88
2018-02-12T09:36:24.349Z,68.07
2018-02-12T09:37:24.275Z,68.07
2018-02-12T09:38:24.005Z,68.44
2018-02-12T09:39:24.296Z,67.88
2018-02-12T09:40:24.030Z,68.16
2018-02-12T09:41:24.322Z,68.07
2018-02-12T09:42:24.331Z,68.16
2018-02-12T09:43:24.065Z,67.79
2018-02-12T09:44:24.352Z,67.69
2018-02-12T09:45:24.365Z,67.59
2018-02-12T09:46:24.375Z,67.4
2018-02-12T09:47:24.386Z,67.59
2018-02-12T09:48:24.398Z,67.4
2018-02-12T09:49:24.130Z,67.44
2018-02-12T09:50:24.421Z,67.4
2018-02-12T09:51:24.151Z,67.63
2018-02-12T09:52:24.163Z,67.59
2018-02-12T09:53:24.175Z,67.21
2018-02-12T09:54:24.469Z,67.5
2018-02-12T09:55:24.478Z,67.53
2018-02-12T09:56:24.493Z,67.44
2018-02-12T09:57:24.221Z,67.63
2018-02-12T09:58:24.512Z,66.96
2018-02-12T09:59:24.527Z,66.96
2018-02-12T10:00:24.589Z,66.96
2018-02-12T10:01:24.547Z,67.34
2018-02-12T10:02:24.276Z,67.06
2018-02-12T10:03:24.288Z,66.67
2018-02-12T10:04:24.299Z,66.77
2018-02-12T10:05:24.809Z,66.96
2018-02-12T10:06:24.609Z,66.58
2018-02-12T10:07:24.336Z,67.34
2018-02-12T10:08:24.627Z,66.96
2018-02-12T10:09:24.356Z,66.67
2018-02-12T10:10:24.699Z,66.3
2018-02-12T10:11:24.381Z,66.3
2018-02-12T10:12:24.673Z,66.67
2018-02-12T10:13:24.689Z,66.39
2018-02-12T10:14:24.415Z,66.49
2018-02-12T10:15:24.428Z,66.01
2018-02-12T10:16:24.721Z,65.73
2018-02-12T10:17:24.450Z,65.73
2018-02-12T10:18:24.744Z,65.44
2018-02-12T10:19:24.758Z,65.35
2018-02-12T10:20:24.534Z,65.25
2018-02-12T10:21:24.496Z,65.25
2018-02-12T10:22:24.789Z,65.25
2018-02-12T10:23:24.803Z,65.35
2018-02-12T10:24:24.531Z,65.06
2018-02-12T10:25:24.587Z,65.35
2018-02-12T10:26:24.842Z,65.63
2018-02-12T10:27:24.568Z,65.82
2018-02-12T10:28:24.860Z,65.35
2018-02-12T10:29:24.591Z,65.16
2018-02-12T10:30:24.886Z,65.06
2018-02-12T10:31:24.897Z,65.44
2018-02-12T10:32:24.627Z,64.72
2018-02-12T10:33:24.919Z,65.16
2018-02-12T10:34:24.650Z,64.05
2018-02-12T10:35:24.992Z,64.62
2018-02-12T10:36:24.673Z,64.34
2018-02-12T10:37:24.975Z,63.76
2018-02-12T10:38:24.698Z,63.95
2018-02-12T10:39:24.990Z,63.95
2018-02-12T10:40:24.793Z,63.95
2018-02-12T10:41:25.015Z,64.05
2018-02-12T10:42:25.027Z,64.05
2018-02-12T10:43:25.046Z,63.48
2018-02-12T10:44:25.054Z,63.76
2018-02-12T10:45:24.931Z,63.67
2018-02-12T10:46:24.792Z,63.67
2018-02-12T10:47:24.824Z,63.57
2018-02-12T10:48:25.100Z,63.1
2018-02-12T10:49:25.108Z,63.1
2018-02-12T10:50:25.183Z,63.67
2018-02-12T10:51:24.854Z,63.1
2018-02-12T10:52:25.154Z,62.91
2018-02-12T10:53:25.159Z,62.91
2018-02-12T10:54:25.170Z,63.01
2018-02-12T10:55:25.051Z,63.57
2018-02-12T10:56:25.198Z,63.39
2018-02-12T10:57:24.970Z,63.57
2018-02-12T10:58:24.936Z,63.48
2018-02-12T10:59:24.952Z,63.67
2018-02-12T11:00:25.296Z,63.67
2018-02-12T11:01:25.253Z,63.48
2018-02-12T11:02:25.275Z,63.29
2018-02-12T11:03:25.280Z,63.57
2018-02-12T11:04:25.288Z,63.67
2018-02-12T11:05:25.070Z,63.57
2018-02-12T11:06:25.032Z,63.1
2018-02-12T11:07:25.352Z,63.39
2018-02-12T11:08:25.383Z,63.1
2018-02-12T11:09:25.364Z,63.1
2018-02-12T11:10:25.132Z,63.57
2018-02-12T11:11:25.168Z,63.39
2018-02-12T11:12:25.108Z,63.29
2018-02-12T11:13:25.400Z,63.48
2018-02-12T11:14:25.134Z,63.29
2018-02-12T11:15:25.141Z,63.39
2018-02-12T11:16:25.153Z,63.57
2018-02-12T11:17:25.446Z,63.57
2018-02-12T11:18:25.178Z,63.48
2018-02-12T11:19:25.472Z,63.57
2018-02-12T11:20:25.534Z,63.95
2018-02-12T11:21:25.216Z,63.67
2018-02-12T11:22:25.507Z,63.57
2018-02-12T11:23:25.519Z,63.57
2018-02-12T11:24:25.251Z,63.01
2018-02-12T11:25:25.544Z,63.01
2018-02-12T11:26:25.555Z,63.01
2018-02-12T11:27:25.286Z,62.91
2018-02-12T11:28:25.634Z,62.91
2018-02-12T11:29:25.316Z,62.81
2018-02-12T11:30:25.321Z,62.81
2018-02-12T11:31:25.674Z,62.72
2018-02-12T11:32:25.348Z,63.1
2018-02-12T11:33:25.642Z,62.91
2018-02-12T11:34:25.653Z,63.2
2018-02-12T11:35:25.665Z,62.72
2018-02-12T11:36:25.396Z,62.62
2018-02-12T11:37:25.694Z,62.81
2018-02-12T11:38:25.423Z,62.81
2018-02-12T11:39:25.714Z,62.72
2018-02-12T11:40:25.726Z,62.53
2018-02-12T11:41:25.457Z,62.43
2018-02-12T11:42:25.751Z,62.34
2018-02-12T11:43:25.770Z,62.53
2018-02-12T11:44:25.780Z,62.05
2018-02-12T11:45:25.788Z,61.96
2018-02-12T11:46:25.806Z,61.77
2018-02-12T11:47:25.813Z,61.61
2018-02-12T11:48:25.823Z,61.71
2018-02-12T11:49:25.835Z,61.8
2018-02-12T11:50:25.567Z,61.23
2018-02-12T11:51:25.872Z,61.32
2018-02-12T11:52:25.592Z,61.32
2018-02-12T11:53:25.886Z,61.52
2018-02-12T11:54:25.617Z,61.04
2018-02-12T11:55:25.913Z,61.04
2018-02-12T11:56:25.923Z,60.94
2018-02-12T11:57:25.654Z,61.13
2018-02-12T11:58:25.949Z,61.04
2018-02-12T11:59:25.963Z,61.04
2018-02-12T12:00:25.972Z,61.04
2018-02-12T12:01:25.985Z,61.01
2018-02-12T12:02:25.717Z,60.66
2018-02-12T12:03:25.729Z,60.94
2018-02-12T12:04:25.742Z,61.04
2018-02-12T12:05:25.756Z,61.13
2018-02-12T12:06:26.049Z,60.72
2018-02-12T12:07:25.815Z,60.75
2018-02-12T12:08:25.792Z,61.04
2018-02-12T12:09:25.806Z,60.75
2018-02-12T12:10:26.123Z,61.01
2018-02-12T12:11:25.832Z,61.04
2018-02-12T12:12:26.123Z,61.04
2018-02-12T12:13:25.854Z,61.04
2018-02-12T12:14:25.866Z,60.91
2018-02-12T12:15:26.161Z,61.04
2018-02-12T12:16:26.324Z,60.82
2018-02-12T12:17:26.185Z,60.75
2018-02-12T12:18:26.198Z,60.85
2018-02-12T12:19:26.212Z,61.04
2018-02-12T12:20:25.944Z,61.04
2018-02-12T12:21:26.287Z,61.01
2018-02-12T12:22:25.967Z,61.04
2018-02-12T12:23:25.979Z,61.04
2018-02-12T12:24:26.271Z,60.75
2018-02-12T12:25:26.005Z,61.04
2018-02-12T12:26:26.069Z,61.04
2018-02-12T12:27:26.316Z,61.32
2018-02-12T12:28:26.047Z,61.04
2018-02-12T12:29:26.335Z,61.23
2018-02-12T12:30:26.351Z,61.13
2018-02-12T12:31:26.360Z,61.23
2018-02-12T12:32:26.092Z,60.94
2018-02-12T12:33:26.385Z,61.04
2018-02-12T12:34:26.116Z,60.94
2018-02-12T12:35:26.494Z,61.13
2018-02-12T12:36:26.473Z,60.75
2018-02-12T12:37:26.156Z,60.66
2018-02-12T12:38:26.448Z,60.75
2018-02-12T12:39:26.460Z,60.28
2018-02-12T12:40:26.473Z,60.09
2018-02-12T12:41:26.256Z,59.61
2018-02-12T12:42:26.500Z,60.09
2018-02-12T12:43:26.515Z,59.61
2018-02-12T12:44:26.525Z,59.52
2018-02-12T12:45:26.256Z,59.14
2018-02-12T12:46:26.273Z,59.33
2018-02-12T12:47:26.285Z,59.33
2018-02-12T12:48:26.295Z,59.52
2018-02-12T12:49:26.336Z,59.8
2018-02-12T12:50:26.601Z,60.18
2018-02-12T12:51:26.614Z,59.99
2018-02-12T12:52:26.632Z,59.8
2018-02-12T12:53:26.359Z,59.99
2018-02-12T12:54:26.395Z,59.8